Budweis, Czech Republic
Current Conditions -  °F | °C
As of 6:20 AM on Monday 20 Oct 2014 (Local Time) from LOWL Reporting Station
Moderate Fog Moderate Fog  
Wind Chill: 45°   Ceiling: Unl
Heat Index: 45°   Visibility: 3mi
Dew Point: 45°   Wind: 1mph
Humidity: 100%   Direction: NA
Pressure: 30.12"   Gusts: NA
Location:  48.99°N, 14.56°E
Report Text: LOWL 200420Z VRB01KT 5000 BR VCFG FEW002 SCT300 07/07 Q1020 TEMPO 0800 BCFG
Loading
Personal Weather Stations






























Interactive Weather Map
Tropical Storm Tracking
New forecast layout! Learn more

10-Day Weather Forecast

Advertisements
Track Severe Weather on mobile